Time;durP1;ratioP1;P1;durP2;ratioP2;P2;SDS_P1;SDS_P2;PMS_P1;PMS_P2;Temp;Humidity;BMP_temperature;BMP_pressure;BME280_temperature;BME280_humidity;BME280_pressure;Samples;Min_cycle;Max_cycle;Signal;HPM_P1;HPM_P2
2021/11/10 00:00:39;;;;;;;7.43;3.90;;;13.20;87.10;;;;;;5036656;28;20395;-77
2021/11/10 00:03:04;;;;;;;9.57;4.60;;;13.20;87.10;;;;;;5036893;28;20394;-77
2021/11/10 00:05:30;;;;;;;7.45;3.80;;;13.20;87.20;;;;;;5036775;28;20479;-77
2021/11/10 00:07:56;;;;;;;7.80;4.20;;;13.20;87.10;;;;;;5036890;28;20108;-76
2021/11/10 00:10:21;;;;;;;7.85;4.20;;;13.20;87.30;;;;;;5054677;28;20048;-77
2021/11/10 00:12:48;;;;;;;9.27;4.45;;;13.20;87.30;;;;;;5036853;28;20037;-77
2021/11/10 00:15:13;;;;;;;6.60;3.97;;;13.20;87.30;;;;;;5035686;28;20025;-76
2021/11/10 00:17:40;;;;;;;7.00;3.95;;;13.20;87.10;;;;;;5054508;28;20032;-77
2021/11/10 00:20:08;;;;;;;8.73;4.20;;;13.20;88.20;;;;;;5054463;28;20033;-76
2021/11/10 00:22:35;;;;;;;8.00;4.30;;;13.20;88.10;;;;;;5054743;28;20021;-76
2021/11/10 00:25:04;;;;;;;6.90;3.83;;;13.20;88.30;;;;;;5036665;28;20025;-75
2021/11/10 00:27:30;;;;;;;7.22;3.83;;;13.30;88.30;;;;;;5054182;28;20025;-77
2021/11/10 00:29:56;;;;;;;8.15;4.30;;;13.30;88.20;;;;;;5036541;28;20028;-76
2021/11/10 00:32:22;;;;;;;6.78;3.50;;;13.30;88.10;;;;;;5036230;28;20028;-77
2021/11/10 00:34:47;;;;;;;7.70;4.03;;;13.30;87.90;;;;;;5036838;28;20106;-77
2021/11/10 00:37:13;;;;;;;7.25;4.05;;;13.30;87.80;;;;;;5053980;28;20486;-77
2021/11/10 00:39:39;;;;;;;6.88;3.80;;;13.30;87.70;;;;;;5036319;28;20445;-76
2021/11/10 00:42:04;;;;;;;11.45;4.10;;;13.30;87.90;;;;;;5036571;28;20017;-78
2021/11/10 00:44:30;;;;;;;7.63;4.10;;;13.30;87.70;;;;;;5036223;28;20021;-76
2021/11/10 00:46:56;;;;;;;6.90;3.65;;;13.30;87.70;;;;;;5035991;28;20017;-76
2021/11/10 00:49:22;;;;;;;10.30;4.53;;;13.30;87.60;;;;;;5054179;28;20025;-77
2021/11/10 00:51:47;;;;;;;7.03;3.97;;;13.30;87.80;;;;;;5036203;28;20372;-76
2021/11/10 00:54:13;;;;;;;6.90;3.67;;;13.30;87.70;;;;;;5053881;28;20021;-76
2021/11/10 00:56:39;;;;;;;7.07;3.80;;;13.30;87.60;;;;;;5035838;28;20048;-77
2021/11/10 00:59:04;;;;;;;7.70;4.13;;;13.30;87.50;;;;;;5053635;28;20470;-75
2021/11/10 01:01:30;;;;;;;7.50;4.32;;;13.30;87.60;;;;;;5035951;28;20025;-74
2021/11/10 01:03:55;;;;;;;9.68;4.90;;;13.20;87.40;;;;;;5035993;28;20360;-76
2021/11/10 01:06:21;;;;;;;8.55;4.25;;;13.20;87.10;;;;;;5035639;28;20017;-77
2021/11/10 01:08:47;;;;;;;7.90;4.43;;;13.20;87.00;;;;;;5053646;28;20021;-77
2021/11/10 01:11:12;;;;;;;7.90;4.53;;;13.20;87.10;;;;;;5053631;28;20562;-76
2021/11/10 01:13:38;;;;;;;7.88;4.22;;;13.20;87.10;;;;;;5053562;28;20035;-77
2021/11/10 01:16:05;;;;;;;8.05;4.20;;;13.10;87.30;;;;;;5053268;28;20021;-76
2021/11/10 01:18:30;;;;;;;9.10;4.13;;;13.10;87.20;;;;;;5035453;28;20035;-76
2021/11/10 01:20:56;;;;;;;8.68;4.47;;;13.10;87.40;;;;;;5035729;28;20021;-76
2021/11/10 01:23:22;;;;;;;8.25;4.32;;;13.10;87.40;;;;;;5053418;28;20031;-77
2021/11/10 01:25:47;;;;;;;7.30;4.25;;;13.10;87.50;;;;;;5035199;28;20445;-76
2021/11/10 01:28:13;;;;;;;8.88;4.60;;;13.10;87.70;;;;;;5035150;28;20053;-76
2021/11/10 01:30:40;;;;;;;8.32;4.47;;;13.10;87.60;;;;;;5053247;28;20053;-78
2021/11/10 01:33:06;;;;;;;9.00;4.72;;;13.10;87.50;;;;;;5035116;28;20033;-78
2021/11/10 01:35:32;;;;;;;8.70;4.40;;;13.10;87.40;;;;;;5053075;28;20100;-78
2021/11/10 01:37:58;;;;;;;8.40;4.53;;;13.10;87.50;;;;;;5052998;28;20025;-77
2021/11/10 01:40:25;;;;;;;7.85;4.40;;;13.10;87.70;;;;;;5035262;28;20087;-77
2021/11/10 01:42:56;;;;;;;7.22;4.00;;;13.10;87.50;;;;;;5052975;28;20029;-78
2021/11/10 01:45:22;;;;;;;7.88;4.13;;;13.10;87.40;;;;;;5052709;28;20025;-75
2021/11/10 01:47:48;;;;;;;8.25;4.43;;;13.10;87.50;;;;;;5035114;28;20027;-75
2021/11/10 01:50:16;;;;;;;7.45;4.70;;;13.10;87.60;;;;;;5052914;28;20029;-76
2021/11/10 01:52:42;;;;;;;8.27;4.00;;;13.10;87.60;;;;;;5053091;28;20083;-76
2021/11/10 01:55:08;;;;;;;7.68;4.43;;;13.10;87.60;;;;;;5034744;28;20025;-75
2021/11/10 01:57:34;;;;;;;8.60;4.30;;;13.10;88.40;;;;;;5052478;28;20021;-75
2021/11/10 02:00:08;;;;;;;8.98;4.18;;;13.10;87.70;;;;;;5034808;28;20136;-75
2021/11/10 02:02:34;;;;;;;7.18;4.47;;;13.10;87.60;;;;;;5034766;28;20032;-77
2021/11/10 02:05:00;;;;;;;7.47;4.40;;;13.10;87.40;;;;;;5035018;28;20560;-75
2021/11/10 02:07:26;;;;;;;6.75;3.95;;;13.10;87.50;;;;;;5034568;28;20017;-77
2021/11/10 02:09:51;;;;;;;6.72;4.13;;;13.10;87.60;;;;;;5034914;28;20437;-78
2021/11/10 02:12:18;;;;;;;7.30;4.60;;;13.10;87.40;;;;;;5052540;28;20036;-76
2021/11/10 02:14:45;;;;;;;8.23;4.30;;;13.10;87.30;;;;;;5034835;28;20036;-75
2021/11/10 02:17:19;;;;;;;12.25;4.85;;;13.10;87.30;;;;;;5034506;28;20025;-75
2021/11/10 02:19:45;;;;;;;22.50;5.10;;;13.10;87.80;;;;;;5034676;28;20033;-76
2021/11/10 02:22:14;;;;;;;12.82;5.00;;;13.10;87.50;;;;;;5034746;28;20029;-75
2021/11/10 02:24:40;;;;;;;13.02;4.53;;;13.10;87.20;;;;;;5034691;28;20021;-77
2021/11/10 02:27:14;;;;;;;11.70;4.50;;;13.10;87.20;;;;;;5052172;28;20028;-77
2021/11/10 02:29:40;;;;;;;10.98;4.60;;;13.10;87.10;;;;;;5034621;28;20029;-77
2021/11/10 02:32:09;;;;;;;9.18;3.97;;;13.10;87.10;;;;;;5034432;28;20044;-77
2021/11/10 02:34:40;;;;;;;9.63;4.85;;;13.10;87.10;;;;;;5034492;28;20494;-77
2021/11/10 02:37:06;;;;;;;9.60;4.13;;;13.10;87.10;;;;;;5034303;28;20032;-76
2021/11/10 02:39:31;;;;;;;9.35;4.38;;;13.10;87.10;;;;;;5054705;28;20029;-77
2021/11/10 02:41:57;;;;;;;10.13;4.18;;;13.10;87.10;;;;;;5056378;28;20028;-77
2021/11/10 02:44:23;;;;;;;7.88;4.55;;;13.10;87.20;;;;;;5038599;28;20028;-76
2021/11/10 02:46:51;;;;;;;9.07;4.70;;;13.10;87.00;;;;;;5038322;28;20029;-77
2021/11/10 02:49:18;;;;;;;9.85;4.57;;;13.10;87.10;;;;;;5038282;28;20060;-77
2021/11/10 02:51:54;;;;;;;7.95;3.90;;;13.10;87.00;;;;;;5038443;28;20032;-75
2021/11/10 02:54:19;;;;;;;9.07;4.22;;;13.10;87.00;;;;;;5038312;28;20021;-77
2021/11/10 02:56:45;;;;;;;8.45;4.28;;;13.10;87.00;;;;;;5055900;28;20040;-77
2021/11/10 02:59:10;;;;;;;8.02;4.22;;;13.10;87.00;;;;;;5037981;28;20040;-76
2021/11/10 03:01:36;;;;;;;9.10;4.32;;;13.10;87.00;;;;;;5038351;28;20017;-78
2021/11/10 03:04:02;;;;;;;8.05;4.45;;;13.10;87.10;;;;;;5038186;28;20044;-78
2021/11/10 03:06:27;;;;;;;8.63;4.15;;;13.10;87.50;;;;;;5037996;28;20410;-77
2021/11/10 03:08:53;;;;;;;7.82;4.07;;;13.10;87.00;;;;;;5038243;28;20060;-77
2021/11/10 03:11:18;;;;;;;7.32;3.92;;;13.10;87.00;;;;;;5055692;28;20029;-76
2021/11/10 03:13:44;;;;;;;7.80;4.07;;;13.10;87.00;;;;;;5055874;28;20025;-75
2021/11/10 03:16:10;;;;;;;8.32;4.40;;;13.10;87.10;;;;;;5037745;28;20025;-77
2021/11/10 03:18:35;;;;;;;7.65;4.28;;;13.10;86.90;;;;;;5037639;28;20158;-74
2021/11/10 03:21:01;;;;;;;6.85;3.90;;;13.10;87.00;;;;;;5037958;28;20482;-75
2021/11/10 03:23:26;;;;;;;7.47;3.97;;;13.10;88.20;;;;;;5026753;28;20065;-77
2021/11/10 03:25:52;;;;;;;7.28;4.03;;;13.10;88.20;;;;;;5035088;28;20032;-75
2021/11/10 03:28:17;;;;;;;7.43;3.90;;;13.10;87.90;;;;;;5035539;28;20036;-75
2021/11/10 03:30:43;;;;;;;6.95;3.60;;;13.10;88.00;;;;;;5018279;28;20076;-74
2021/11/10 03:33:09;;;;;;;6.10;3.70;;;13.20;87.90;;;;;;5035806;28;20056;-74
2021/11/10 03:35:35;;;;;;;6.72;3.55;;;13.20;88.00;;;;;;5017640;28;20104;-77
2021/11/10 03:38:00;;;;;;;7.40;3.90;;;13.20;87.60;;;;;;5017742;28;20171;-76
2021/11/10 03:40:26;;;;;;;5.85;3.65;;;13.20;87.20;;;;;;5017593;28;20064;-77
2021/11/10 03:42:52;;;;;;;8.05;3.88;;;13.20;87.50;;;;;;5035393;28;20022;-76
2021/11/10 03:45:17;;;;;;;7.13;3.58;;;13.20;87.40;;;;;;5017403;28;20131;-78
2021/11/10 03:47:43;;;;;;;7.78;3.58;;;13.20;87.50;;;;;;5035221;28;20021;-76
2021/11/10 03:50:08;;;;;;;7.72;3.85;;;13.20;87.30;;;;;;5035112;28;20025;-77
2021/11/10 03:52:34;;;;;;;6.60;3.70;;;13.20;87.30;;;;;;5017456;28;20044;-75
2021/11/10 03:55:00;;;;;;;9.02;4.45;;;13.20;87.40;;;;;;5017444;28;20084;-74
2021/11/10 03:57:26;;;;;;;6.88;3.85;;;13.20;87.20;;;;;;5017107;28;20025;-76
2021/11/10 03:59:51;;;;;;;7.80;3.92;;;13.20;87.00;;;;;;5017247;28;20052;-75
2021/11/10 04:02:17;;;;;;;7.63;4.32;;;13.20;86.90;;;;;;5035240;28;20053;-75
2021/11/10 04:04:42;;;;;;;7.65;4.30;;;13.10;86.50;;;;;;5034970;28;20036;-76
2021/11/10 04:07:08;;;;;;;7.18;4.20;;;13.10;86.70;;;;;;5017158;28;20104;-76
2021/11/10 04:09:33;;;;;;;9.52;4.55;;;13.10;86.50;;;;;;5017086;28;20109;-77
2021/11/10 04:11:59;;;;;;;8.57;4.32;;;13.10;86.50;;;;;;5034908;28;20021;-77
2021/11/10 04:14:25;;;;;;;9.20;4.28;;;13.10;86.60;;;;;;5034779;28;20025;-77
2021/11/10 04:16:50;;;;;;;9.73;4.68;;;13.00;86.50;;;;;;5034615;28;20588;-76
2021/11/10 04:19:16;;;;;;;6.97;4.03;;;13.00;86.50;;;;;;5016857;28;20036;-77
2021/11/10 04:21:42;;;;;;;7.82;4.20;;;13.00;86.60;;;;;;5016952;28;20064;-76
2021/11/10 04:24:07;;;;;;;8.13;4.43;;;13.00;86.70;;;;;;5034557;28;20022;-75
2021/11/10 04:26:37;;;;;;;7.43;4.13;;;13.00;86.60;;;;;;5034336;28;20022;-76
2021/11/10 04:29:03;;;;;;;7.63;4.50;;;13.00;86.60;;;;;;5016750;28;20493;-75
2021/11/10 04:31:29;;;;;;;8.32;4.40;;;13.00;86.70;;;;;;5016756;28;20109;-74
2021/11/10 04:33:56;;;;;;;9.77;4.57;;;13.00;86.60;;;;;;5034570;28;20116;-76
2021/11/10 04:36:24;;;;;;;6.75;3.97;;;13.00;86.60;;;;;;5016601;28;20483;-77
2021/11/10 04:38:50;;;;;;;7.55;4.13;;;13.00;86.60;;;;;;5016431;28;20064;-76
2021/11/10 04:41:16;;;;;;;7.60;4.43;;;13.00;86.60;;;;;;5016562;28;20471;-77
2021/11/10 04:43:42;;;;;;;7.30;4.55;;;13.00;86.50;;;;;;5016584;28;20108;-77
2021/11/10 04:46:13;;;;;;;9.52;4.63;;;13.00;86.50;;;;;;5033999;28;20061;-77
2021/11/10 04:48:40;;;;;;;8.07;4.35;;;13.00;86.50;;;;;;5016423;28;20537;-76
2021/11/10 04:51:07;;;;;;;6.97;4.30;;;13.00;86.50;;;;;;5016384;28;20034;-76
2021/11/10 04:53:36;;;;;;;7.22;4.40;;;13.00;86.40;;;;;;5034044;28;20494;-76
2021/11/10 04:56:03;;;;;;;7.30;4.43;;;13.00;86.40;;;;;;5033793;28;20026;-76
2021/11/10 04:58:29;;;;;;;7.55;4.60;;;13.00;86.40;;;;;;5016330;28;20590;-78
2021/11/10 05:00:55;;;;;;;8.15;4.47;;;13.00;86.40;;;;;;5033673;28;20112;-77
2021/11/10 05:03:20;;;;;;;7.60;4.15;;;13.00;86.60;;;;;;5016036;28;20032;-77
2021/11/10 05:05:46;;;;;;;9.68;5.50;;;13.00;86.40;;;;;;5016029;28;20025;-77
2021/11/10 05:08:12;;;;;;;8.75;4.10;;;13.00;86.40;;;;;;5033506;28;20025;-76
2021/11/10 05:10:38;;;;;;;7.43;4.43;;;13.00;86.40;;;;;;5016186;28;20463;-78
2021/11/10 05:13:03;;;;;;;6.80;4.28;;;13.00;86.40;;;;;;5015959;28;20052;-77
2021/11/10 05:15:29;;;;;;;8.10;4.45;;;13.00;86.40;;;;;;5015637;28;20399;-78
2021/11/10 05:17:54;;;;;;;6.60;4.40;;;13.10;86.40;;;;;;5016097;28;20025;-77
2021/11/10 05:20:20;;;;;;;8.68;4.28;;;13.00;86.60;;;;;;5015808;28;20085;-77
2021/11/10 05:22:46;;;;;;;6.93;4.20;;;12.90;86.30;;;;;;5014430;28;20163;-75
2021/11/10 05:25:12;;;;;;;7.18;4.15;;;13.00;86.30;;;;;;5028346;28;20483;-77
2021/11/10 05:27:39;;;;;;;7.80;4.57;;;13.00;86.30;;;;;;5015833;28;20099;-77
2021/11/10 05:30:07;;;;;;;7.10;4.05;;;13.00;86.40;;;;;;5053205;28;20508;-77
2021/11/10 05:32:32;;;;;;;7.80;4.47;;;13.00;86.50;;;;;;5052915;28;20490;-76
2021/11/10 05:35:01;;;;;;;7.07;4.40;;;13.00;86.30;;;;;;5053203;28;20028;-77
2021/11/10 05:37:28;;;;;;;8.45;4.50;;;13.00;86.20;;;;;;5052682;28;20103;-76
2021/11/10 05:39:54;;;;;;;7.13;4.45;;;13.00;86.20;;;;;;5021030;28;20025;-77
2021/11/10 05:42:19;;;;;;;8.50;4.47;;;13.00;86.10;;;;;;5021023;28;20108;-79
2021/11/10 05:44:45;;;;;;;6.88;4.45;;;13.00;86.20;;;;;;5035758;28;20084;-77
2021/11/10 05:47:11;;;;;;;8.38;4.25;;;13.00;86.10;;;;;;5034857;28;20497;-77
2021/11/10 05:49:37;;;;;;;9.57;4.72;;;12.90;86.00;;;;;;5041743;28;20021;-75
2021/11/10 05:52:04;;;;;;;7.25;4.40;;;13.00;86.20;;;;;;4991057;28;20034;-77
2021/11/10 05:54:29;;;;;;;8.32;4.40;;;13.00;86.10;;;;;;5008878;28;20097;-75
2021/11/10 05:56:55;;;;;;;7.85;4.53;;;13.00;86.00;;;;;;5008159;28;20456;-75
2021/11/10 05:59:20;;;;;;;9.63;4.47;;;13.00;85.90;;;;;;4991674;28;20052;-75
2021/11/10 06:01:46;;;;;;;7.90;4.57;;;13.00;85.90;;;;;;5009480;28;20030;-76
2021/11/10 06:04:12;;;;;;;15.15;5.32;;;13.00;85.40;;;;;;5009295;28;20026;-76
2021/11/10 06:06:38;;;;;;;16.73;5.10;;;12.90;77.40;;;;;;4991607;28;20072;-76
2021/11/10 06:09:05;;;;;;;9.98;4.65;;;12.70;71.00;;;;;;5009579;28;20022;-76
2021/11/10 06:11:31;;;;;;;15.57;5.95;;;12.50;68.90;;;;;;4991940;28;20036;-76
2021/11/10 06:13:56;;;;;;;14.43;5.45;;;12.40;67.50;;;;;;4992474;28;20093;-77
2021/11/10 06:16:22;;;;;;;12.77;5.03;;;12.30;67.60;;;;;;4991790;28;20045;-74
2021/11/10 06:18:47;;;;;;;10.98;5.00;;;12.40;70.20;;;;;;5009384;28;20036;-77
2021/11/10 06:21:13;;;;;;;9.40;4.85;;;12.40;72.80;;;;;;4991603;28;20030;-75
2021/11/10 06:23:39;;;;;;;9.38;4.85;;;12.50;75.30;;;;;;4992144;28;20026;-76
2021/11/10 06:26:04;;;;;;;11.95;5.28;;;12.50;76.90;;;;;;4991478;28;20191;-76
2021/11/10 06:28:30;;;;;;;10.00;5.13;;;12.50;77.60;;;;;;5009185;28;20092;-75
2021/11/10 06:30:56;;;;;;;12.77;4.88;;;12.70;78.80;;;;;;4991778;28;20491;-77
2021/11/10 06:33:21;;;;;;;9.35;4.85;;;12.70;79.00;;;;;;4991736;28;20674;-77
2021/11/10 06:35:47;;;;;;;10.93;5.32;;;12.70;79.30;;;;;;4990966;28;20060;-76
2021/11/10 06:38:12;;;;;;;9.85;5.00;;;12.80;79.80;;;;;;4991523;28;20030;-76
2021/11/10 06:40:38;;;;;;;9.32;5.20;;;12.80;79.80;;;;;;4991498;28;20030;-75
2021/11/10 06:43:04;;;;;;;9.45;4.72;;;12.80;80.10;;;;;;4991161;28;20488;-77
2021/11/10 06:45:29;;;;;;;13.00;6.07;;;12.90;80.40;;;;;;4990616;28;20065;-76
2021/11/10 06:47:55;;;;;;;9.73;4.93;;;12.90;80.60;;;;;;5008347;28;20380;-76
2021/11/10 06:50:20;;;;;;;9.95;5.18;;;12.90;80.80;;;;;;4990891;28;20033;-76
2021/11/10 06:52:46;;;;;;;11.77;5.47;;;12.90;80.90;;;;;;4990905;28;20025;-74
2021/11/10 06:55:12;;;;;;;7.32;4.72;;;12.90;81.10;;;;;;4990845;28;20048;-76
2021/11/10 06:57:37;;;;;;;8.48;5.15;;;12.90;81.00;;;;;;4990764;28;20026;-76
2021/11/10 07:00:09;;;;;;;10.55;5.38;;;12.90;81.20;;;;;;4990971;28;20041;-76
2021/11/10 07:02:35;;;;;;;;;;;12.90;81.30;;;;;;5011193;28;20484;-74
2021/11/10 07:05:00;;;;;;;9.20;4.78;;;12.90;81.40;;;;;;5011053;28;19928;-79
2021/11/10 07:07:26;;;;;;;8.98;5.40;;;12.90;81.60;;;;;;5028429;28;20033;-75
2021/11/10 07:09:52;;;;;;;9.07;5.53;;;12.90;81.70;;;;;;5010704;28;20022;-75
2021/11/10 07:12:18;;;;;;;10.85;5.53;;;12.90;81.80;;;;;;5010861;28;20026;-76
2021/11/10 07:14:43;;;;;;;10.27;5.43;;;12.90;82.00;;;;;;5010581;28;20861;-77
2021/11/10 07:17:09;;;;;;;11.25;5.63;;;12.80;81.20;;;;;;5010699;28;20057;-75
2021/11/10 07:19:35;;;;;;;13.05;5.25;;;12.80;81.10;;;;;;5011174;28;20037;-76
2021/11/10 07:22:01;;;;;;;9.70;5.40;;;12.80;81.40;;;;;;5028565;28;20037;-77
2021/11/10 07:24:29;;;;;;;10.30;5.45;;;12.80;81.80;;;;;;5028883;28;20037;-79
2021/11/10 07:26:54;;;;;;;8.85;4.93;;;12.80;82.10;;;;;;5014357;28;20317;-76
2021/11/10 07:29:20;;;;;;;8.75;5.00;;;12.80;82.30;;;;;;5014174;28;20109;-76
2021/11/10 07:31:45;;;;;;;13.68;5.50;;;12.80;82.10;;;;;;5031894;28;20029;-78
2021/11/10 07:34:11;;;;;;;12.43;5.80;;;12.90;82.30;;;;;;5013909;28;20033;-78
2021/11/10 07:36:36;;;;;;;9.57;4.75;;;12.90;82.40;;;;;;5013933;28;20029;-77
2021/11/10 07:39:02;;;;;;;9.13;4.82;;;13.00;82.40;;;;;;5031339;28;20029;-77
2021/11/10 07:41:31;;;;;;;8.65;5.47;;;13.00;82.40;;;;;;5013627;28;20026;-77
2021/11/10 07:43:57;;;;;;;10.15;4.70;;;13.00;82.50;;;;;;5014605;28;20029;-80
2021/11/10 07:46:25;;;;;;;7.60;4.88;;;13.00;82.30;;;;;;5082656;22;20544;-79
2021/11/10 07:48:51;;;;;;;10.57;4.93;;;13.00;82.40;;;;;;5056364;28;20115;-78
2021/11/10 07:51:18;;;;;;;10.23;4.93;;;13.00;82.40;;;;;;5074817;28;20048;-80
2021/11/10 07:53:44;;;;;;;10.75;5.03;;;13.00;82.40;;;;;;5057389;28;20035;-80
2021/11/10 07:56:10;;;;;;;10.57;4.78;;;13.00;82.30;;;;;;5056939;28;20727;-81
2021/11/10 07:58:38;;;;;;;10.60;5.10;;;13.10;82.30;;;;;;5074966;28;20059;-82
2021/11/10 08:01:05;;;;;;;9.32;5.05;;;13.10;82.30;;;;;;5057254;28;20036;-81
2021/11/10 08:03:31;;;;;;;10.88;4.72;;;13.10;82.20;;;;;;5057462;28;20401;-80
2021/11/10 08:05:57;;;;;;;10.38;5.03;;;13.10;82.10;;;;;;5057234;28;20028;-79
2021/11/10 08:08:23;;;;;;;10.68;4.90;;;13.10;82.10;;;;;;5056064;28;20024;-79
2021/11/10 08:10:50;;;;;;;10.90;4.85;;;13.10;81.90;;;;;;5054469;28;20024;-79
2021/11/10 08:13:15;;;;;;;9.48;4.70;;;13.20;82.00;;;;;;5052891;28;20162;-79
2021/11/10 08:15:41;;;;;;;12.00;4.80;;;13.20;81.90;;;;;;5053673;28;20484;-79
2021/11/10 08:18:07;;;;;;;12.27;5.05;;;13.20;81.90;;;;;;5054162;28;20031;-78
2021/11/10 08:20:32;;;;;;;11.52;4.90;;;13.20;81.90;;;;;;5053955;28;20025;-80
2021/11/10 08:22:58;;;;;;;10.43;4.82;;;13.20;81.80;;;;;;5053672;28;20031;-79
2021/11/10 08:25:23;;;;;;;14.77;4.97;;;13.20;81.80;;;;;;5054104;28;20021;-80
2021/11/10 08:27:49;;;;;;;10.85;5.43;;;13.30;81.70;;;;;;5054209;28;20044;-81
2021/11/10 08:30:18;;;;;;;11.52;5.50;;;13.30;81.40;;;;;;5072624;28;20464;-80
2021/11/10 08:32:46;;;;;;;9.70;5.22;;;13.30;81.10;;;;;;5053437;28;20056;-79
2021/11/10 08:35:12;;;;;;;12.07;5.28;;;13.30;81.20;;;;;;5055566;28;20028;-79
2021/11/10 08:37:38;;;;;;;10.98;5.55;;;13.30;81.30;;;;;;5072016;28;20024;-80
2021/11/10 08:40:06;;;;;;;10.70;5.93;;;13.30;81.30;;;;;;5053683;28;20028;-81
2021/11/10 08:42:34;;;;;;;12.93;6.82;;;13.30;80.60;;;;;;5053573;28;20021;-81
2021/11/10 08:45:07;;;;;;;9.60;6.28;;;13.40;80.20;;;;;;5053414;28;20024;-79
2021/11/10 08:47:33;;;;;;;15.68;7.28;;;13.40;80.30;;;;;;5053630;28;20479;-81
2021/11/10 08:49:59;;;;;;;10.95;6.38;;;13.50;80.20;;;;;;5053467;28;20047;-81
2021/11/10 08:52:27;;;;;;;10.80;7.13;;;13.50;80.10;;;;;;5053355;28;20032;-80
2021/11/10 08:54:56;;;;;;;10.90;6.32;;;13.50;80.00;;;;;;5071046;28;20021;-82
2021/11/10 08:57:22;;;;;;;12.20;6.78;;;13.60;80.20;;;;;;5070719;28;20331;-79
2021/11/10 08:59:48;;;;;;;12.52;6.63;;;13.60;80.10;;;;;;5070885;28;20029;-80
2021/11/10 09:02:13;;;;;;;12.98;6.95;;;13.70;80.20;;;;;;5052851;28;20513;-80
2021/11/10 09:04:39;;;;;;;11.90;7.30;;;13.70;80.10;;;;;;5053392;28;20478;-79
2021/11/10 09:07:05;;;;;;;9.45;6.72;;;13.70;80.10;;;;;;5052802;28;20025;-78
2021/11/10 09:09:31;;;;;;;12.05;6.68;;;13.70;80.00;;;;;;5052661;28;20020;-81
2021/11/10 09:11:56;;;;;;;8.20;6.20;;;13.70;79.90;;;;;;5052835;28;20039;-80
2021/11/10 09:14:22;;;;;;;9.93;6.07;;;13.80;79.70;;;;;;5052511;28;20031;-81
2021/11/10 09:16:48;;;;;;;11.30;6.28;;;13.80;79.60;;;;;;5052757;28;20047;-81
2021/11/10 09:19:14;;;;;;;9.63;6.13;;;13.80;79.60;;;;;;5052552;28;20025;-79
2021/11/10 09:21:40;;;;;;;8.77;6.03;;;13.80;79.50;;;;;;5052706;28;20564;-80
2021/11/10 09:24:06;;;;;;;8.27;5.93;;;13.80;79.40;;;;;;5052141;28;20482;-79
2021/11/10 09:26:32;;;;;;;11.98;6.28;;;13.90;79.40;;;;;;5052422;28;20105;-79
2021/11/10 09:28:58;;;;;;;10.65;6.32;;;13.90;79.40;;;;;;5052310;28;20028;-80
2021/11/10 09:31:24;;;;;;;9.93;6.05;;;13.90;79.20;;;;;;5051833;28;20513;-81
2021/11/10 09:33:53;;;;;;;9.10;6.18;;;13.90;79.20;;;;;;5052212;28;20032;-82
2021/11/10 09:36:20;;;;;;;8.27;5.53;;;13.90;79.30;;;;;;5051892;28;20025;-80
2021/11/10 09:38:46;;;;;;;9.30;5.65;;;13.90;79.50;;;;;;5070227;28;20035;-81
2021/11/10 09:41:12;;;;;;;8.90;5.80;;;13.90;79.60;;;;;;5051844;28;20020;-81
2021/11/10 09:43:39;;;;;;;8.52;5.70;;;13.90;79.50;;;;;;5051647;28;20606;-78
2021/11/10 09:46:07;;;;;;;9.60;5.70;;;14.10;79.40;;;;;;5052111;28;20036;-80
2021/11/10 09:48:34;;;;;;;9.60;6.05;;;14.00;79.20;;;;;;5051137;28;20115;-80
2021/11/10 09:51:00;;;;;;;8.27;5.60;;;14.00;79.00;;;;;;5052266;28;20024;-80
2021/11/10 09:53:26;;;;;;;9.13;5.90;;;14.00;78.90;;;;;;5070007;28;20347;-81
2021/11/10 09:55:54;;;;;;;9.25;5.72;;;14.00;78.80;;;;;;5051905;28;20088;-80
2021/11/10 09:58:20;;;;;;;9.32;5.57;;;14.10;78.60;;;;;;5051767;28;20422;-81
2021/11/10 10:00:51;;;;;;;9.43;5.43;;;14.10;78.50;;;;;;5051325;28;20028;-81
2021/11/10 10:03:18;;;;;;;10.48;5.78;;;14.10;78.50;;;;;;5051639;28;20521;-78
2021/11/10 10:05:45;;;;;;;8.98;5.63;;;14.10;78.50;;;;;;5069420;28;20036;-81
2021/11/10 10:08:12;;;;;;;8.85;5.60;;;14.00;78.50;;;;;;5070193;28;20024;-79
2021/11/10 10:10:39;;;;;;;8.75;5.65;;;14.10;78.50;;;;;;5051384;28;20035;-79
2021/11/10 10:13:06;;;;;;;8.10;5.47;;;14.10;78.50;;;;;;5051794;28;20024;-80
2021/11/10 10:15:34;;;;;;;8.60;5.40;;;14.10;78.60;;;;;;5051133;28;20025;-80
2021/11/10 10:18:00;;;;;;;7.90;5.15;;;14.10;78.50;;;;;;5051657;28;20032;-80
2021/11/10 10:20:37;;;;;;;8.32;5.03;;;14.10;78.70;;;;;;5051425;28;20413;-81
2021/11/10 10:23:23;;;;;;;8.95;5.43;;;14.00;78.60;;;;;;5051838;28;20095;-82
2021/11/10 10:25:53;;;;;;;7.78;4.57;;;14.00;78.60;;;;;;5069286;28;20025;-79
2021/11/10 10:28:23;;;;;;;8.38;5.20;;;14.00;78.50;;;;;;5069831;28;20119;-80
2021/11/10 10:30:56;;;;;;;6.55;4.45;;;14.10;78.70;;;;;;5051402;28;20028;-80
2021/11/10 10:33:25;;;;;;;7.57;4.72;;;14.10;78.70;;;;;;5068776;28;20031;-78
2021/11/10 10:35:57;;;;;;;7.97;4.78;;;14.10;78.60;;;;;;5051324;28;20085;-79
2021/11/10 10:38:40;;;;;;;8.80;5.18;;;14.10;78.60;;;;;;5051252;28;20039;-80
2021/11/10 10:41:07;;;;;;;7.22;4.85;;;14.10;78.50;;;;;;5050582;28;20035;-81
2021/11/10 10:43:49;;;;;;;8.80;4.82;;;14.10;78.50;;;;;;5050787;28;20058;-80
2021/11/10 10:46:16;;;;;;;7.13;4.70;;;14.10;78.50;;;;;;5050731;28;20029;-79
2021/11/10 10:48:42;;;;;;;7.35;4.40;;;14.10;78.50;;;;;;5069084;28;20048;-79
2021/11/10 10:51:14;;;;;;;10.80;4.90;;;14.20;79.10;;;;;;5068854;28;20068;-81
2021/11/10 10:53:45;;;;;;;7.70;4.90;;;14.20;78.60;;;;;;5069813;28;20024;-83
2021/11/10 10:56:21;;;;;;;8.10;4.68;;;14.20;78.50;;;;;;5061755;28;20585;-79
2021/11/10 10:59:11;;;;;;;8.43;5.00;;;14.20;78.50;;;;;;5051049;28;20029;-78
2021/11/10 11:01:40;;;;;;;7.18;4.80;;;14.20;79.20;;;;;;5054484;28;20497;-78
2021/11/10 11:04:13;;;;;;;6.93;4.50;;;14.20;78.70;;;;;;5054575;28;20028;-80
2021/11/10 11:06:48;;;;;;;7.28;4.30;;;14.20;78.60;;;;;;5054658;28;20027;-79
2021/11/10 11:09:30;;;;;;;7.85;4.72;;;14.20;78.70;;;;;;5055204;28;20024;-78
2021/11/10 11:12:11;;;;;;;8.73;4.80;;;14.20;78.60;;;;;;5055151;28;20024;-78
2021/11/10 11:14:45;;;;;;;8.23;4.57;;;14.20;78.60;;;;;;5072473;28;20028;-80
2021/11/10 11:17:29;;;;;;;7.32;4.50;;;14.30;78.60;;;;;;5072220;28;20024;-79
2021/11/10 11:20:13;;;;;;;7.78;4.45;;;14.20;78.60;;;;;;5054139;28;20028;-79
2021/11/10 11:22:43;;;;;;;7.13;4.43;;;14.30;78.60;;;;;;5055288;28;20033;-81
2021/11/10 11:25:10;;;;;;;8.02;4.32;;;14.30;78.60;;;;;;5053355;28;20029;-80
2021/11/10 11:27:36;;;;;;;7.20;4.40;;;14.30;78.70;;;;;;5072196;28;20025;-82
2021/11/10 11:30:10;;;;;;;7.60;4.35;;;14.30;78.70;;;;;;5057206;28;20036;-79
2021/11/10 11:32:41;;;;;;;8.57;4.40;;;14.30;78.70;;;;;;5056669;28;20035;-79
2021/11/10 11:35:09;;;;;;;8.00;4.55;;;14.30;78.70;;;;;;5056394;28;20064;-81
2021/11/10 11:37:35;;;;;;;7.47;4.47;;;14.30;78.80;;;;;;5074611;28;20013;-80
2021/11/10 11:40:07;;;;;;;8.52;4.60;;;14.20;78.80;;;;;;5056496;28;20437;-79
2021/11/10 11:42:33;;;;;;;9.75;4.40;;;14.20;79.10;;;;;;5056666;28;20031;-81
2021/11/10 11:44:59;;;;;;;8.10;4.70;;;14.20;79.30;;;;;;5073695;28;20025;-78
2021/11/10 11:47:25;;;;;;;7.60;4.50;;;14.10;79.50;;;;;;5056236;28;20199;-81
2021/11/10 11:49:52;;;;;;;8.52;4.55;;;14.10;79.50;;;;;;5055261;28;20032;-81
2021/11/10 11:52:27;;;;;;;10.68;5.00;;;14.10;79.60;;;;;;5054296;28;20060;-80
2021/11/10 11:54:59;;;;;;;12.05;4.85;;;14.20;79.50;;;;;;5054095;28;20028;-80
2021/11/10 11:57:27;;;;;;;10.45;4.82;;;14.20;79.60;;;;;;5071789;28;20074;-81
2021/11/10 11:59:55;;;;;;;8.07;4.45;;;14.10;79.50;;;;;;5053761;28;20035;-79
2021/11/10 12:02:27;;;;;;;9.55;4.72;;;14.10;79.60;;;;;;5054321;28;20502;-83
2021/11/10 12:04:54;;;;;;;9.55;4.80;;;14.10;79.80;;;;;;5053583;28;20039;-82
2021/11/10 12:07:45;;;;;;;9.98;4.80;;;14.10;79.80;;;;;;5053056;28;20379;-81
2021/11/10 12:10:23;;;;;;;11.10;4.82;;;14.10;79.90;;;;;;5072044;28;20044;-82
2021/11/10 12:13:08;;;;;;;9.05;4.63;;;14.00;80.00;;;;;;5053226;28;20024;-80
2021/11/10 12:16:10;;;;;;;11.30;4.75;;;14.00;80.10;;;;;;5071693;28;20591;-81
2021/11/10 12:18:54;;;;;;;7.40;4.72;;;14.00;80.10;;;;;;5053582;28;20060;-81
2021/11/10 12:21:22;;;;;;;10.50;5.00;;;14.00;80.30;;;;;;5055369;28;20490;-79
2021/11/10 12:23:50;;;;;;;8.35;4.90;;;14.00;80.20;;;;;;5054485;28;20031;-81
2021/11/10 12:26:17;;;;;;;10.60;5.38;;;14.00;79.60;;;;;;5052741;28;20052;-83
2021/11/10 12:28:57;;;;;;;9.20;5.22;;;14.00;79.10;;;;;;5054099;28;20116;-80
2021/11/10 12:31:32;;;;;;;11.98;5.65;;;14.10;79.30;;;;;;5071613;28;20452;-80
2021/11/10 12:34:01;;;;;;;9.30;5.28;;;14.10;79.70;;;;;;5053065;28;20032;-80
2021/11/10 12:36:57;;;;;;;8.75;4.85;;;14.10;79.40;;;;;;5053045;28;20552;-81
2021/11/10 12:39:43;;;;;;;9.38;5.13;;;14.10;79.20;;;;;;5054073;28;20736;-80
2021/11/10 12:42:10;;;;;;;8.57;5.10;;;14.20;79.10;;;;;;5055515;28;20028;-79
2021/11/10 12:44:48;;;;;;;14.82;5.25;;;14.20;79.10;;;;;;5073399;28;20028;-79
2021/11/10 12:47:16;;;;;;;11.20;5.55;;;14.10;79.20;;;;;;5067248;28;20436;-80